createdAt,value
2019-03-05T00:00:41.335Z,997.01
2019-03-05T00:01:41.351Z,997.07
2019-03-05T00:02:41.351Z,997.02
2019-03-05T00:04:02.401Z,997.05
2019-03-05T00:04:41.442Z,996.96
2019-03-05T00:05:41.400Z,997.02
2019-03-05T00:06:41.411Z,996.98
2019-03-05T00:07:41.473Z,997.03
2019-03-05T00:08:41.471Z,997.07
2019-03-05T00:10:02.471Z,997.00
2019-03-05T00:10:41.467Z,997.08
2019-03-05T00:11:41.502Z,997.04
2019-03-05T00:12:41.495Z,997.00
2019-03-05T00:13:41.516Z,997.07
2019-03-05T00:14:41.680Z,997.17
2019-03-05T00:16:02.556Z,997.08
2019-03-05T00:16:41.564Z,997.05
2019-03-05T00:17:41.582Z,996.98
2019-03-05T00:18:41.588Z,997.18
2019-03-05T00:19:41.602Z,997.19
2019-03-05T00:20:41.619Z,997.27
2019-03-05T00:22:02.659Z,997.18
2019-03-05T00:22:41.636Z,997.17
2019-03-05T00:23:41.673Z,997.15
2019-03-05T00:24:41.744Z,997.18
2019-03-05T00:25:41.698Z,997.17
2019-03-05T00:26:41.703Z,997.23
2019-03-05T00:28:02.740Z,997.21
2019-03-05T00:28:41.760Z,997.28
2019-03-05T00:29:41.749Z,997.24
2019-03-05T00:30:41.762Z,997.18
2019-03-05T00:31:41.819Z,997.28
2019-03-05T00:32:41.847Z,997.23
2019-03-05T00:34:02.889Z,997.27
2019-03-05T00:34:41.975Z,997.19
2019-03-05T00:35:41.877Z,997.17
2019-03-05T00:36:41.879Z,997.23
2019-03-05T00:37:41.901Z,997.21
2019-03-05T00:38:41.909Z,997.19
2019-03-05T00:40:02.917Z,997.19
2019-03-05T00:40:41.915Z,997.29
2019-03-05T00:41:41.929Z,997.28
2019-03-05T00:42:41.947Z,997.27
2019-03-05T00:43:41.970Z,997.31
2019-03-05T00:44:42.093Z,997.30
2019-03-05T00:46:02.995Z,997.25
2019-03-05T00:46:42.000Z,997.22
2019-03-05T00:47:42.003Z,997.30
2019-03-05T00:48:42.039Z,997.33
2019-03-05T00:49:42.192Z,997.32
2019-03-05T00:50:42.056Z,997.33
2019-03-05T00:52:03.082Z,997.36
2019-03-05T00:52:42.118Z,997.40
2019-03-05T00:53:42.097Z,997.36
2019-03-05T00:54:42.122Z,997.42
2019-03-05T00:55:42.150Z,997.44
2019-03-05T00:56:42.135Z,997.46
2019-03-05T00:58:03.171Z,997.43
2019-03-05T00:58:42.168Z,997.45
2019-03-05T00:59:42.224Z,997.33
2019-03-05T01:00:42.217Z,997.40
2019-03-05T01:01:42.216Z,997.36
2019-03-05T01:02:42.234Z,997.47
2019-03-05T01:04:03.295Z,997.50
2019-03-05T01:04:42.253Z,997.49
2019-03-05T01:05:42.282Z,997.46
2019-03-05T01:06:42.272Z,997.49
2019-03-05T01:07:42.288Z,997.43
2019-03-05T01:08:42.320Z,997.48
2019-03-05T01:10:03.340Z,997.51
2019-03-05T01:10:42.400Z,997.55
2019-03-05T01:11:42.361Z,997.63
2019-03-05T01:12:42.400Z,997.55
2019-03-05T01:13:42.413Z,997.56
2019-03-05T01:14:42.414Z,997.50
2019-03-05T01:16:03.431Z,997.50
2019-03-05T01:16:42.426Z,997.54
2019-03-05T01:17:42.473Z,997.57
2019-03-05T01:18:42.455Z,997.56
2019-03-05T01:19:42.626Z,997.66
2019-03-05T01:20:42.488Z,997.60
2019-03-05T01:22:03.526Z,997.55
2019-03-05T01:22:42.547Z,997.58
2019-03-05T01:23:42.534Z,997.69
2019-03-05T01:24:42.555Z,997.58
2019-03-05T01:25:42.562Z,997.60
2019-03-05T01:26:42.587Z,997.60
2019-03-05T01:28:03.608Z,997.58
2019-03-05T01:28:42.609Z,997.61
2019-03-05T01:29:42.720Z,997.68
2019-03-05T01:30:42.644Z,997.65
2019-03-05T01:31:42.646Z,997.61
2019-03-05T01:32:42.743Z,997.64
2019-03-05T01:34:03.683Z,997.63
2019-03-05T01:34:42.691Z,997.67
2019-03-05T01:35:42.698Z,997.58
2019-03-05T01:36:42.717Z,997.62
2019-03-05T01:37:42.747Z,997.60
2019-03-05T01:38:42.753Z,997.59
2019-03-05T01:40:03.778Z,997.66
2019-03-05T01:40:42.763Z,997.70
2019-03-05T01:41:42.803Z,997.55
2019-03-05T01:42:42.803Z,997.54
2019-03-05T01:43:42.850Z,997.50
2019-03-05T01:44:43.013Z,997.73
2019-03-05T01:46:03.901Z,997.52
2019-03-05T01:46:42.871Z,997.55
2019-03-05T01:47:42.881Z,997.58
2019-03-05T01:48:42.969Z,997.52
2019-03-05T01:49:42.910Z,997.63
2019-03-05T01:50:42.913Z,997.54
2019-03-05T01:52:03.956Z,997.56
2019-03-05T01:52:42.957Z,997.48
2019-03-05T01:53:42.993Z,997.52
2019-03-05T01:54:43.075Z,997.51
2019-03-05T01:55:43.003Z,997.54
2019-03-05T01:56:43.000Z,997.51
2019-03-05T01:58:04.040Z,997.47
2019-03-05T01:58:43.031Z,997.51
2019-03-05T01:59:43.037Z,997.44
2019-03-05T02:00:43.088Z,997.49
2019-03-05T02:01:43.079Z,997.46
2019-03-05T02:02:43.089Z,997.46
2019-03-05T02:04:04.123Z,997.43
2019-03-05T02:04:43.265Z,997.38
2019-03-05T02:05:43.136Z,997.40
2019-03-05T02:06:43.150Z,997.41
2019-03-05T02:07:43.172Z,997.42
2019-03-05T02:08:43.171Z,997.41
2019-03-05T02:10:04.216Z,997.39
2019-03-05T02:10:43.214Z,997.32
2019-03-05T02:11:43.222Z,997.41
2019-03-05T02:12:43.257Z,997.35
2019-03-05T02:13:43.297Z,997.35
2019-03-05T02:14:43.467Z,997.36
2019-03-05T02:16:04.289Z,997.30
2019-03-05T02:16:43.293Z,997.30
2019-03-05T02:17:43.349Z,997.34
2019-03-05T02:18:43.351Z,997.27
2019-03-05T02:19:43.337Z,997.20
2019-03-05T02:20:43.367Z,997.27
2019-03-05T02:22:04.400Z,997.18
2019-03-05T02:22:43.378Z,997.24
2019-03-05T02:23:43.403Z,997.24
2019-03-05T02:24:43.489Z,997.26
2019-03-05T02:25:43.449Z,997.18
2019-03-05T02:26:43.464Z,997.22
2019-03-05T02:28:04.525Z,997.14
2019-03-05T02:28:43.461Z,997.10
2019-03-05T02:29:43.476Z,997.15
2019-03-05T02:30:43.532Z,997.13
2019-03-05T02:31:43.504Z,997.13
2019-03-05T02:32:43.531Z,997.10
2019-03-05T02:34:04.566Z,997.16
2019-03-05T02:34:43.558Z,997.03
2019-03-05T02:35:43.561Z,997.01
2019-03-05T02:36:43.613Z,997.01
2019-03-05T02:37:43.627Z,997.01
2019-03-05T02:38:43.608Z,997.10
2019-03-05T02:40:04.638Z,997.05
2019-03-05T02:40:43.628Z,997.01
2019-03-05T02:41:43.671Z,996.98
2019-03-05T02:42:43.677Z,996.95
2019-03-05T02:43:43.679Z,996.89
2019-03-05T02:44:43.704Z,996.98
2019-03-05T02:46:04.728Z,996.92
2019-03-05T02:46:43.747Z,996.96
2019-03-05T02:47:43.740Z,996.93
2019-03-05T02:48:43.787Z,996.94
2019-03-05T02:51:25.823Z,996.92
2019-03-05T02:52:46.856Z,996.89
2019-03-05T02:53:25.964Z,996.93
2019-03-05T02:54:25.862Z,996.94
2019-03-05T02:55:25.868Z,996.92
2019-03-05T02:56:25.894Z,996.90
2019-03-05T02:57:25.942Z,996.91
2019-03-05T02:58:46.953Z,996.99
2019-03-05T02:59:25.927Z,997.05
2019-03-05T03:00:26.049Z,997.05
2019-03-05T03:01:25.959Z,997.13
2019-03-05T03:02:26.034Z,997.17
2019-03-05T03:03:26.054Z,997.16
2019-03-05T03:04:47.021Z,997.20
2019-03-05T03:07:08.317Z,997.19
2019-03-05T03:08:08.341Z,997.19
2019-03-05T03:09:08.353Z,997.14
2019-03-05T03:10:08.419Z,997.21
2019-03-05T03:11:29.399Z,997.20
2019-03-05T03:12:08.394Z,997.18
2019-03-05T03:13:08.409Z,997.22
2019-03-05T03:14:08.426Z,997.18
2019-03-05T03:15:08.489Z,997.18
2019-03-05T03:16:08.452Z,997.26
2019-03-05T03:17:29.472Z,997.27
2019-03-05T03:18:08.497Z,997.19
2019-03-05T03:19:08.486Z,997.19
2019-03-05T03:20:08.651Z,997.28
2019-03-05T03:21:08.519Z,997.27
2019-03-05T03:22:08.564Z,997.18
2019-03-05T03:23:29.729Z,997.23
2019-03-05T03:24:08.579Z,997.37
2019-03-05T03:25:08.623Z,997.45
2019-03-05T03:26:08.597Z,997.29
2019-03-05T03:27:08.602Z,997.30
2019-03-05T03:28:08.628Z,997.26
2019-03-05T03:29:29.663Z,997.27
2019-03-05T03:30:08.678Z,997.23
2019-03-05T03:31:08.673Z,997.28
2019-03-05T03:32:08.696Z,997.27
2019-03-05T03:33:08.709Z,997.38
2019-03-05T03:34:08.704Z,997.34
2019-03-05T03:35:29.750Z,997.31
2019-03-05T03:36:08.740Z,997.37
2019-03-05T03:37:08.765Z,997.41
2019-03-05T03:38:08.792Z,997.45
2019-03-05T03:39:08.844Z,997.47
2019-03-05T03:40:08.794Z,997.42
2019-03-05T03:41:29.863Z,997.42
2019-03-05T03:42:08.826Z,997.42
2019-03-05T03:44:50.841Z,997.48
2019-03-05T03:45:50.995Z,997.49
2019-03-05T03:46:50.852Z,997.49
2019-03-05T03:48:11.888Z,997.51
2019-03-05T03:48:50.904Z,997.49
2019-03-05T03:49:50.895Z,997.48
2019-03-05T03:50:50.970Z,997.48
2019-03-05T03:51:51.495Z,997.51
2019-03-05T03:52:50.948Z,997.45
2019-03-05T03:54:11.960Z,997.48
2019-03-05T03:54:50.970Z,997.50
2019-03-05T03:55:51.108Z,997.47
2019-03-05T03:56:51.020Z,997.48
2019-03-05T03:57:51.017Z,997.54
2019-03-05T03:58:51.052Z,997.47
2019-03-05T04:00:12.145Z,997.52
2019-03-05T04:00:51.060Z,997.53
2019-03-05T04:01:51.075Z,997.48
2019-03-05T04:02:51.099Z,997.47
2019-03-05T04:03:51.101Z,997.51
2019-03-05T04:04:51.108Z,997.50
2019-03-05T04:06:12.146Z,997.54
2019-03-05T04:06:51.140Z,997.60
2019-03-05T04:07:51.158Z,997.57
2019-03-05T04:08:51.222Z,997.60
2019-03-05T04:09:51.198Z,997.61
2019-03-05T04:12:36.948Z,997.60
2019-03-05T04:13:36.863Z,997.63
2019-03-05T04:14:15.852Z,997.66
2019-03-05T04:15:15.887Z,997.63
2019-03-05T04:16:15.887Z,997.64
2019-03-05T04:17:36.931Z,997.63
2019-03-05T04:18:16.101Z,997.70
2019-03-05T04:19:15.925Z,997.66
2019-03-05T04:20:15.966Z,997.72
2019-03-05T04:21:16.043Z,997.71
2019-03-05T04:22:16.041Z,997.71
2019-03-05T04:23:37.008Z,997.78
2019-03-05T04:24:16.013Z,997.71
2019-03-05T04:25:16.014Z,997.74
2019-03-05T04:26:16.033Z,997.79
2019-03-05T04:27:16.075Z,997.70
2019-03-05T04:28:16.212Z,997.71
2019-03-05T04:29:37.101Z,997.70
2019-03-05T04:30:16.084Z,997.72
2019-03-05T04:31:16.118Z,997.75
2019-03-05T04:32:16.115Z,997.80
2019-03-05T04:33:16.127Z,997.76
2019-03-05T04:34:16.144Z,997.76
2019-03-05T04:35:37.166Z,997.79
2019-03-05T04:36:16.265Z,997.76
2019-03-05T04:37:16.179Z,997.70
2019-03-05T04:38:16.276Z,997.76
2019-03-05T04:39:16.215Z,997.73
2019-03-05T04:40:16.222Z,997.74
2019-03-05T04:41:37.288Z,997.69
2019-03-05T04:42:16.267Z,997.78
2019-03-05T04:43:16.267Z,997.83
2019-03-05T04:44:16.278Z,997.75
2019-03-05T04:45:16.296Z,997.72
2019-03-05T04:46:16.312Z,997.66
2019-03-05T04:47:37.349Z,997.73
2019-03-05T04:48:16.502Z,997.77
2019-03-05T04:49:16.360Z,997.69
2019-03-05T04:50:16.374Z,997.63
2019-03-05T04:51:16.401Z,997.70
2019-03-05T04:52:16.391Z,997.72
2019-03-05T04:53:37.429Z,997.75
2019-03-05T04:54:16.447Z,997.70
2019-03-05T04:55:16.438Z,997.73
2019-03-05T04:56:16.453Z,997.74
2019-03-05T04:57:16.464Z,997.71
2019-03-05T04:58:16.528Z,997.80
2019-03-05T04:59:37.505Z,997.74
2019-03-05T05:00:16.514Z,997.75
2019-03-05T05:01:16.530Z,997.75
2019-03-05T05:02:16.531Z,997.73
2019-03-05T05:03:16.546Z,997.69
2019-03-05T05:04:16.562Z,997.73
2019-03-05T05:05:37.623Z,997.69
2019-03-05T05:06:16.614Z,997.73
2019-03-05T05:07:16.605Z,997.75
2019-03-05T05:08:16.620Z,997.74
2019-03-05T05:09:16.626Z,997.82
2019-03-05T05:10:16.663Z,997.72
2019-03-05T05:11:37.679Z,997.75
2019-03-05T05:12:16.689Z,997.70
2019-03-05T05:13:16.856Z,997.76
2019-03-05T05:14:16.708Z,997.92
2019-03-05T05:15:16.723Z,997.80
2019-03-05T05:16:16.791Z,997.86
2019-03-05T05:17:37.909Z,997.79
2019-03-05T05:18:16.771Z,997.82
2019-03-05T05:19:16.784Z,997.88
2019-03-05T05:20:16.808Z,997.85
2019-03-05T05:21:16.829Z,997.81
2019-03-05T05:22:16.817Z,997.85
2019-03-05T05:23:37.842Z,997.88
2019-03-05T05:24:16.883Z,997.87
2019-03-05T05:25:16.867Z,997.85
2019-03-05T05:27:58.855Z,997.79
2019-03-05T05:28:58.848Z,997.83
2019-03-05T05:30:19.883Z,997.86
2019-03-05T05:30:58.888Z,997.82
2019-03-05T05:31:58.901Z,997.81
2019-03-05T05:32:58.909Z,997.87
2019-03-05T05:33:59.000Z,997.80
2019-03-05T05:34:58.965Z,997.68
2019-03-05T05:36:19.968Z,997.70
2019-03-05T05:36:59.027Z,997.73
2019-03-05T05:37:58.980Z,997.76
2019-03-05T05:38:59.001Z,997.80
2019-03-05T05:39:59.026Z,997.75
2019-03-05T05:40:59.022Z,997.74
2019-03-05T05:42:20.039Z,997.75
2019-03-05T05:42:59.055Z,997.77
2019-03-05T05:43:59.128Z,997.76
2019-03-05T05:46:23.868Z,997.81
2019-03-05T05:47:23.852Z,997.83
2019-03-05T05:48:44.883Z,997.82
2019-03-05T05:49:23.886Z,997.85
2019-03-05T05:50:23.917Z,997.82
2019-03-05T05:51:23.934Z,997.85
2019-03-05T05:52:23.949Z,997.87
2019-03-05T05:53:23.938Z,997.79
2019-03-05T05:54:44.979Z,997.86
2019-03-05T05:55:23.972Z,997.85
2019-03-05T05:56:23.993Z,997.80
2019-03-05T05:57:24.019Z,997.81
2019-03-05T05:58:24.013Z,997.87
2019-03-05T05:59:24.033Z,997.87
2019-03-05T06:00:45.092Z,997.84
2019-03-05T06:01:24.130Z,997.80
2019-03-05T06:02:24.068Z,997.81
2019-03-05T06:03:24.080Z,997.84
2019-03-05T06:04:24.090Z,997.85
2019-03-05T06:05:24.119Z,997.87
2019-03-05T06:06:45.127Z,997.87
2019-03-05T06:07:24.127Z,997.87
2019-03-05T06:08:24.161Z,997.86
2019-03-05T06:09:24.175Z,997.90
2019-03-05T06:10:24.229Z,997.92
2019-03-05T06:11:24.217Z,997.86
2019-03-05T06:12:45.222Z,997.93
2019-03-05T06:13:24.223Z,998.04
2019-03-05T06:14:24.254Z,997.93
2019-03-05T06:15:24.254Z,998.00
2019-03-05T06:16:24.346Z,997.93
2019-03-05T06:17:24.283Z,997.92
2019-03-05T06:18:45.319Z,997.89
2019-03-05T06:19:24.320Z,997.85
2019-03-05T06:20:24.323Z,997.92
2019-03-05T06:21:24.338Z,997.93
2019-03-05T06:22:24.373Z,998.06
2019-03-05T06:23:24.386Z,997.97
2019-03-05T06:24:45.408Z,998.06
2019-03-05T06:25:24.505Z,997.96
2019-03-05T06:26:24.530Z,998.06
2019-03-05T06:27:24.427Z,998.00
2019-03-05T06:28:24.434Z,997.99
2019-03-05T06:29:24.525Z,998.04
2019-03-05T06:30:45.569Z,998.06
2019-03-05T06:31:24.491Z,998.01
2019-03-05T06:32:24.520Z,998.01
2019-03-05T06:33:24.528Z,998.08
2019-03-05T06:34:24.550Z,997.97
2019-03-05T06:35:24.548Z,998.10
2019-03-05T06:36:45.605Z,998.12
2019-03-05T06:37:24.563Z,998.04
2019-03-05T06:38:24.590Z,998.10
2019-03-05T06:39:24.596Z,998.16
2019-03-05T06:40:24.606Z,998.19
2019-03-05T06:41:24.620Z,998.19
2019-03-05T06:42:45.667Z,998.16
2019-03-05T06:43:24.929Z,998.13
2019-03-05T06:44:24.670Z,998.16
2019-03-05T06:45:24.677Z,998.17
2019-03-05T06:46:24.781Z,998.16
2019-03-05T06:47:24.716Z,998.13
2019-03-05T06:48:45.757Z,998.18
2019-03-05T06:49:24.740Z,998.21
2019-03-05T06:50:24.743Z,998.18
2019-03-05T06:51:24.778Z,998.15
2019-03-05T06:52:24.799Z,998.26
2019-03-05T06:53:24.802Z,998.24
2019-03-05T06:54:45.838Z,998.25
2019-03-05T06:55:24.844Z,998.27
2019-03-05T06:56:24.927Z,998.32
2019-03-05T06:57:24.843Z,998.30
2019-03-05T06:58:24.863Z,998.28
2019-03-05T06:59:24.884Z,998.33
2019-03-05T07:00:45.902Z,998.33
2019-03-05T07:01:24.905Z,998.34
2019-03-05T07:02:24.918Z,998.38
2019-03-05T07:03:24.926Z,998.42
2019-03-05T07:04:24.943Z,998.40
2019-03-05T07:05:24.964Z,998.34
2019-03-05T07:06:46.032Z,998.59
2019-03-05T07:07:25.048Z,998.46
2019-03-05T07:08:25.014Z,998.40
2019-03-05T07:09:25.022Z,998.42
2019-03-05T07:10:25.039Z,998.40
2019-03-05T07:11:25.208Z,998.49
2019-03-05T07:12:46.233Z,998.48
2019-03-05T07:13:25.077Z,998.48
2019-03-05T07:14:25.103Z,998.54
2019-03-05T07:15:25.112Z,998.52
2019-03-05T07:16:25.164Z,998.52
2019-03-05T07:17:25.267Z,998.56
2019-03-05T07:18:46.204Z,998.53
2019-03-05T07:19:25.215Z,998.48
2019-03-05T07:20:25.237Z,998.44
2019-03-05T07:21:25.347Z,998.39
2019-03-05T07:22:25.204Z,998.40
2019-03-05T07:23:25.225Z,998.38
2019-03-05T07:24:46.256Z,998.40
2019-03-05T07:25:25.380Z,998.39
2019-03-05T07:26:25.271Z,998.42
2019-03-05T07:27:25.352Z,998.41
2019-03-05T07:28:25.298Z,998.44
2019-03-05T07:29:25.292Z,998.42
2019-03-05T07:30:46.351Z,998.51
2019-03-05T07:31:25.389Z,998.55
2019-03-05T07:32:25.417Z,998.53
2019-03-05T07:33:25.378Z,998.50
2019-03-05T07:34:25.368Z,998.45
2019-03-05T07:35:25.500Z,998.48
2019-03-05T07:36:46.533Z,998.52
2019-03-05T07:37:25.408Z,998.57
2019-03-05T07:38:25.433Z,998.45
2019-03-05T07:39:25.443Z,998.56
2019-03-05T07:40:25.461Z,998.55
2019-03-05T07:41:25.477Z,998.51
2019-03-05T07:42:46.509Z,998.47
2019-03-05T07:43:36.031Z,998.51
2019-03-05T07:44:25.543Z,998.57
2019-03-05T07:45:25.573Z,998.51
2019-03-05T07:46:25.544Z,998.52
2019-03-05T07:47:25.563Z,998.55
2019-03-05T07:48:46.590Z,998.53
2019-03-05T07:49:25.680Z,998.53
2019-03-05T07:50:25.621Z,998.56
2019-03-05T07:51:25.628Z,998.60
2019-03-05T07:52:26.367Z,998.57
2019-03-05T07:53:25.644Z,998.66
2019-03-05T07:54:46.688Z,998.65
2019-03-05T07:55:25.734Z,998.66
2019-03-05T07:56:25.701Z,998.69
2019-03-05T07:57:25.711Z,998.82
2019-03-05T07:58:25.727Z,998.72
2019-03-05T07:59:25.779Z,998.68
2019-03-05T08:00:46.778Z,998.71
2019-03-05T08:01:25.759Z,998.66
2019-03-05T08:02:25.786Z,998.68
2019-03-05T08:03:25.800Z,998.57
2019-03-05T08:04:25.816Z,998.61
2019-03-05T08:05:25.851Z,998.58
2019-03-05T08:06:46.853Z,998.58
2019-03-05T08:07:25.866Z,998.67
2019-03-05T08:08:26.923Z,998.62
2019-03-05T08:09:25.924Z,998.68
2019-03-05T08:10:25.897Z,998.63
2019-03-05T08:11:25.936Z,998.64
2019-03-05T08:12:46.958Z,998.58
2019-03-05T08:13:25.944Z,998.58
2019-03-05T08:14:25.974Z,998.66
2019-03-05T08:15:25.974Z,998.65
2019-03-05T08:16:25.999Z,998.72
2019-03-05T08:17:26.002Z,998.71
2019-03-05T08:18:47.055Z,998.71
2019-03-05T08:19:26.039Z,998.68
2019-03-05T08:20:26.064Z,998.74
2019-03-05T08:21:26.076Z,998.71
2019-03-05T08:22:26.109Z,998.77
2019-03-05T08:23:26.106Z,998.78
2019-03-05T08:24:47.176Z,998.71
2019-03-05T08:25:26.152Z,998.72
2019-03-05T08:26:26.151Z,998.86
2019-03-05T08:27:26.192Z,998.73
2019-03-05T08:28:26.246Z,998.70
2019-03-05T08:29:26.277Z,998.73
2019-03-05T08:30:47.239Z,998.74
2019-03-05T08:31:26.304Z,998.68
2019-03-05T08:32:26.254Z,998.67
2019-03-05T08:33:26.442Z,998.71
2019-03-05T08:34:26.285Z,998.64
2019-03-05T08:35:26.306Z,998.67
2019-03-05T08:36:47.325Z,998.64
2019-03-05T08:37:26.329Z,998.68
2019-03-05T08:38:26.408Z,998.60
2019-03-05T08:39:26.419Z,998.60
2019-03-05T08:40:26.425Z,998.80
2019-03-05T08:41:26.419Z,998.69
2019-03-05T08:42:47.485Z,998.61
2019-03-05T08:43:26.443Z,998.63
2019-03-05T08:44:26.462Z,998.71
2019-03-05T08:45:29.585Z,998.61
2019-03-05T08:46:26.468Z,998.58
2019-03-05T08:47:26.488Z,998.66
2019-03-05T08:48:47.561Z,998.63
2019-03-05T08:49:26.599Z,998.49
2019-03-05T08:50:26.559Z,998.51
2019-03-05T08:51:26.587Z,998.52
2019-03-05T08:52:26.586Z,998.48
2019-03-05T08:53:26.602Z,998.48
2019-03-05T08:54:47.610Z,998.50
2019-03-05T08:55:26.668Z,998.43
2019-03-05T08:56:26.646Z,998.51
2019-03-05T08:57:26.646Z,998.36
2019-03-05T08:58:26.692Z,998.49
2019-03-05T08:59:26.688Z,998.42
2019-03-05T09:00:48.237Z,998.45
2019-03-05T09:01:26.804Z,998.44
2019-03-05T09:02:26.719Z,998.68
2019-03-05T09:03:26.735Z,998.49
2019-03-05T09:04:26.768Z,998.57
2019-03-05T09:05:26.776Z,998.51
2019-03-05T09:06:47.798Z,998.42
2019-03-05T09:07:26.820Z,998.55
2019-03-05T09:08:26.834Z,998.43
2019-03-05T09:09:26.837Z,998.39
2019-03-05T09:10:26.844Z,998.38
2019-03-05T09:11:27.043Z,998.28
2019-03-05T09:12:47.884Z,998.34
2019-03-05T09:13:32.638Z,998.27
2019-03-05T09:14:26.926Z,998.28
2019-03-05T09:15:26.936Z,998.38
2019-03-05T09:16:26.932Z,998.28
2019-03-05T09:17:26.951Z,998.34
2019-03-05T09:18:47.988Z,998.55
2019-03-05T09:19:27.010Z,998.32
2019-03-05T09:20:27.009Z,998.28
2019-03-05T09:21:27.018Z,998.38
2019-03-05T09:22:27.031Z,998.36
2019-03-05T09:23:27.053Z,998.46
2019-03-05T09:24:48.077Z,998.42
2019-03-05T09:25:27.075Z,998.39
2019-03-05T09:26:27.311Z,998.41
2019-03-05T09:27:27.158Z,998.32
2019-03-05T09:28:27.125Z,998.35
2019-03-05T09:29:27.229Z,998.36
2019-03-05T09:30:48.322Z,998.41
2019-03-05T09:31:27.178Z,998.57
2019-03-05T09:32:27.198Z,998.46
2019-03-05T09:33:27.202Z,998.35
2019-03-05T09:34:27.210Z,998.51
2019-03-05T09:35:27.222Z,998.33
2019-03-05T09:36:51.222Z,998.41
2019-03-05T09:37:27.252Z,998.53
2019-03-05T09:38:27.269Z,998.60
2019-03-05T09:39:27.323Z,998.39
2019-03-05T09:40:27.309Z,998.44
2019-03-05T09:41:27.322Z,998.49
2019-03-05T09:42:48.399Z,998.42
2019-03-05T09:43:27.365Z,998.45
2019-03-05T09:44:27.371Z,998.51
2019-03-05T09:45:28.340Z,998.58
2019-03-05T09:46:27.586Z,998.46
2019-03-05T09:47:27.400Z,998.50
2019-03-05T09:48:48.474Z,998.46
2019-03-05T09:49:27.445Z,998.42
2019-03-05T09:50:27.454Z,998.53
2019-03-05T09:51:27.481Z,998.55
2019-03-05T09:52:27.507Z,998.38
2019-03-05T09:53:27.506Z,998.47
2019-03-05T09:54:48.528Z,998.41
2019-03-05T09:55:27.536Z,998.41
2019-03-05T09:56:27.735Z,998.56
2019-03-05T09:57:27.560Z,998.58
2019-03-05T09:58:27.585Z,998.55
2019-03-05T09:59:27.615Z,998.62
2019-03-05T10:00:48.624Z,998.59
2019-03-05T10:01:27.637Z,998.54
2019-03-05T10:02:27.642Z,998.57
2019-03-05T10:03:27.654Z,998.76
2019-03-05T10:04:27.660Z,999.18
2019-03-05T10:05:27.673Z,998.82
2019-03-05T10:06:48.711Z,998.79
2019-03-05T10:07:27.714Z,998.68
2019-03-05T10:08:32.427Z,998.73
2019-03-05T10:09:27.777Z,998.67
2019-03-05T10:10:27.770Z,998.64
2019-03-05T10:11:27.785Z,998.91
2019-03-05T10:12:48.873Z,999.21
2019-03-05T10:13:27.806Z,998.51
2019-03-05T10:14:27.817Z,998.74
2019-03-05T10:15:27.834Z,998.81
2019-03-05T10:16:27.858Z,998.88
2019-03-05T10:17:37.673Z,998.69
2019-03-05T10:18:48.905Z,998.64
2019-03-05T10:19:27.897Z,998.79
2019-03-05T10:20:27.913Z,998.66
2019-03-05T10:21:27.970Z,998.69
2019-03-05T10:22:27.960Z,998.67
2019-03-05T10:23:27.986Z,998.61
2019-03-05T10:24:48.982Z,998.70
2019-03-05T10:25:27.999Z,998.64
2019-03-05T10:26:28.008Z,998.63
2019-03-05T10:27:28.013Z,998.71
2019-03-05T10:28:28.038Z,998.67
2019-03-05T10:29:28.068Z,998.60
2019-03-05T10:30:49.057Z,998.51
2019-03-05T10:31:28.250Z,998.61
2019-03-05T10:32:28.084Z,998.67
2019-03-05T10:33:28.116Z,998.54
2019-03-05T10:34:28.139Z,998.50
2019-03-05T10:35:28.140Z,998.57
2019-03-05T10:36:49.192Z,998.47
2019-03-05T10:37:28.152Z,998.55
2019-03-05T10:38:28.217Z,998.55
2019-03-05T10:39:30.919Z,998.52
2019-03-05T10:40:28.216Z,998.41
2019-03-05T10:41:28.313Z,998.44
2019-03-05T10:42:49.302Z,998.50
2019-03-05T10:43:28.247Z,998.42
2019-03-05T10:44:28.257Z,998.44
2019-03-05T10:45:28.273Z,998.43
2019-03-05T10:46:28.322Z,998.41
2019-03-05T10:47:28.317Z,998.44
2019-03-05T10:48:49.346Z,998.41
2019-03-05T10:49:28.328Z,998.37
2019-03-05T10:50:28.341Z,998.41
2019-03-05T10:51:28.371Z,998.40
2019-03-05T10:52:28.389Z,998.33
2019-03-05T10:53:28.426Z,998.39
2019-03-05T10:54:49.421Z,998.34
2019-03-05T10:55:28.435Z,998.31
2019-03-05T10:56:28.461Z,998.30
2019-03-05T10:57:28.438Z,998.44
2019-03-05T10:58:33.663Z,998.42
2019-03-05T10:59:28.488Z,998.35
2019-03-05T11:00:49.519Z,998.33
2019-03-05T11:01:28.623Z,998.43
2019-03-05T11:02:28.522Z,998.37
2019-03-05T11:03:28.530Z,998.40
2019-03-05T11:04:28.552Z,998.39
2019-03-05T11:05:28.553Z,998.50
2019-03-05T11:06:49.601Z,998.44
2019-03-05T11:07:28.664Z,998.43
2019-03-05T11:08:28.628Z,998.34
2019-03-05T11:09:28.617Z,998.29
2019-03-05T11:10:28.653Z,998.45
2019-03-05T11:11:28.654Z,998.35
2019-03-05T11:12:49.692Z,998.27
2019-03-05T11:13:28.672Z,998.33
2019-03-05T11:14:28.686Z,998.28
2019-03-05T11:15:28.703Z,998.34
2019-03-05T11:16:31.044Z,998.21
2019-03-05T11:17:28.745Z,998.32
2019-03-05T11:18:49.787Z,998.30
2019-03-05T11:19:28.765Z,998.42
2019-03-05T11:20:28.801Z,998.30
2019-03-05T11:21:28.783Z,998.26
2019-03-05T11:22:28.800Z,998.23
2019-03-05T11:23:28.829Z,998.37
2019-03-05T11:24:49.857Z,998.30
2019-03-05T11:25:28.848Z,998.36
2019-03-05T11:26:28.964Z,998.22
2019-03-05T11:27:28.895Z,998.34
2019-03-05T11:28:29.411Z,998.37
2019-03-05T11:29:28.932Z,998.25
2019-03-05T11:30:49.970Z,998.35
2019-03-05T11:31:28.957Z,998.36
2019-03-05T11:32:28.965Z,998.33
2019-03-05T11:33:28.973Z,998.43
2019-03-05T11:34:28.992Z,998.40
2019-03-05T11:35:28.996Z,998.46
2019-03-05T11:36:50.021Z,998.44
2019-03-05T11:37:29.102Z,998.37
2019-03-05T11:38:29.097Z,998.33
2019-03-05T11:39:29.076Z,998.33
2019-03-05T11:40:29.156Z,998.37
2019-03-05T11:41:29.101Z,998.30
2019-03-05T11:42:50.186Z,998.39
2019-03-05T11:43:29.118Z,998.33
2019-03-05T11:44:29.132Z,998.31
2019-03-05T11:45:29.149Z,998.33
2019-03-05T11:46:29.210Z,998.36
2019-03-05T11:47:29.194Z,998.40
2019-03-05T11:48:50.188Z,998.19
2019-03-05T11:49:29.204Z,998.19
2019-03-05T11:50:29.209Z,998.26
2019-03-05T11:51:29.230Z,998.18
2019-03-05T11:52:29.269Z,998.25
2019-03-05T11:53:29.257Z,998.12
2019-03-05T11:54:50.322Z,998.14
2019-03-05T11:55:29.368Z,998.23
2019-03-05T11:56:29.316Z,998.22
2019-03-05T11:57:29.348Z,998.11
2019-03-05T11:58:29.448Z,998.15
2019-03-05T11:59:29.362Z,998.19
2019-03-05T12:00:50.368Z,998.26
2019-03-05T12:01:29.394Z,998.31
2019-03-05T12:02:29.426Z,998.28
2019-03-05T12:03:29.439Z,998.33
2019-03-05T12:04:29.413Z,998.31
2019-03-05T12:05:29.461Z,998.28
2019-03-05T12:06:50.488Z,998.35
2019-03-05T12:07:29.477Z,998.37
2019-03-05T12:08:29.538Z,998.55
2019-03-05T12:09:29.502Z,998.38
2019-03-05T12:10:29.544Z,998.34
2019-03-05T12:11:29.550Z,998.25
2019-03-05T12:12:50.783Z,998.46
2019-03-05T12:13:29.560Z,998.26
2019-03-05T12:14:29.559Z,998.32
2019-03-05T12:15:29.580Z,998.27
2019-03-05T12:16:29.602Z,998.29
2019-03-05T12:17:29.624Z,998.27
2019-03-05T12:18:50.663Z,998.30
2019-03-05T12:19:29.638Z,998.23
2019-03-05T12:20:29.649Z,998.29
2019-03-05T12:21:29.718Z,998.33
2019-03-05T12:22:31.493Z,998.40
2019-03-05T12:23:29.708Z,998.30
2019-03-05T12:24:50.732Z,998.40
2019-03-05T12:25:29.735Z,998.34
2019-03-05T12:26:29.738Z,998.28
2019-03-05T12:27:29.762Z,998.31
2019-03-05T12:28:29.788Z,998.37
2019-03-05T12:29:29.783Z,998.32
2019-03-05T12:30:50.820Z,998.40
2019-03-05T12:31:29.869Z,998.30
2019-03-05T12:32:29.823Z,998.27
2019-03-05T12:33:29.872Z,998.27
2019-03-05T12:34:29.856Z,998.30
2019-03-05T12:35:29.868Z,998.30
2019-03-05T12:36:50.909Z,998.33
2019-03-05T12:37:29.976Z,998.35
2019-03-05T12:38:30.084Z,998.32